Terminal Aerodrome Forecast
Issued by NWS

Home | Current Version | Previous Version | Text Only | Print | Product List | Glossary On
Versions: 1 2 3 4 5 6 7 8 9 10 11 12 13 14 15 16 17 18 19 20 21 22 23 24 25 26 27
000
FTUS42 KMFL 232329
TAFTMB
TAF
KTMB 232329Z 2400/2424 11006KT P6SM SHRA VCTS SCT035CB BKN090
     FM240200 VRB03KT P6SM VCSH SCT025
     FM241600 05008KT P6SM VCSH SCT025 BKN050 PROB30 2416/2422 6SM
      TSRA SCT020CB BKN035=

USA.gov is the U.S. government's official web portal to all federal, state and local government web resources and services.